sensor_id;sensor_type;location;lat;lon;timestamp;P1;durP1;ratioP1;P2;durP2;ratioP2
70253;SDS011;57649;42.968;1.608;2023-07-09T00:01:33;10.13;;;5.40;;
70253;SDS011;57649;42.968;1.608;2023-07-09T00:03:59;8.05;;;5.60;;
70253;SDS011;57649;42.968;1.608;2023-07-09T00:06:24;8.27;;;5.65;;
70253;SDS011;57649;42.968;1.608;2023-07-09T00:08:50;7.63;;;5.45;;
70253;SDS011;57649;42.968;1.608;2023-07-09T00:11:15;8.95;;;5.05;;
70253;SDS011;57649;42.968;1.608;2023-07-09T00:13:41;8.05;;;5.20;;
70253;SDS011;57649;42.968;1.608;2023-07-09T00:16:10;9.77;;;5.75;;
70253;SDS011;57649;42.968;1.608;2023-07-09T00:18:39;11.13;;;5.97;;
70253;SDS011;57649;42.968;1.608;2023-07-09T00:21:04;9.25;;;5.82;;
70253;SDS011;57649;42.968;1.608;2023-07-09T00:23:30;9.88;;;5.57;;
70253;SDS011;57649;42.968;1.608;2023-07-09T00:25:56;10.10;;;5.10;;
70253;SDS011;57649;42.968;1.608;2023-07-09T00:28:21;13.05;;;5.68;;
70253;SDS011;57649;42.968;1.608;2023-07-09T00:30:47;11.27;;;5.70;;
70253;SDS011;57649;42.968;1.608;2023-07-09T00:33:14;9.73;;;5.88;;
70253;SDS011;57649;42.968;1.608;2023-07-09T00:35:41;8.45;;;5.90;;
70253;SDS011;57649;42.968;1.608;2023-07-09T00:38:12;8.20;;;5.53;;
70253;SDS011;57649;42.968;1.608;2023-07-09T00:40:45;8.18;;;5.63;;
70253;SDS011;57649;42.968;1.608;2023-07-09T00:43:15;8.70;;;5.00;;
70253;SDS011;57649;42.968;1.608;2023-07-09T00:45:41;8.82;;;5.43;;
70253;SDS011;57649;42.968;1.608;2023-07-09T00:48:06;7.45;;;5.38;;
70253;SDS011;57649;42.968;1.608;2023-07-09T00:50:40;8.55;;;5.25;;
70253;SDS011;57649;42.968;1.608;2023-07-09T00:53:29;11.10;;;6.03;;
70253;SDS011;57649;42.968;1.608;2023-07-09T00:55:58;8.95;;;5.80;;
70253;SDS011;57649;42.968;1.608;2023-07-09T00:58:28;8.95;;;5.50;;
70253;SDS011;57649;42.968;1.608;2023-07-09T01:00:55;6.97;;;5.43;;
70253;SDS011;57649;42.968;1.608;2023-07-09T01:05:54;6.82;;;4.95;;
70253;SDS011;57649;42.968;1.608;2023-07-09T01:08:23;10.60;;;5.45;;
70253;SDS011;57649;42.968;1.608;2023-07-09T01:10:49;9.75;;;5.45;;
70253;SDS011;57649;42.968;1.608;2023-07-09T01:13:14;10.68;;;5.88;;
70253;SDS011;57649;42.968;1.608;2023-07-09T01:15:41;8.60;;;5.90;;
70253;SDS011;57649;42.968;1.608;2023-07-09T01:18:07;9.77;;;5.75;;
70253;SDS011;57649;42.968;1.608;2023-07-09T01:20:35;11.93;;;6.10;;
70253;SDS011;57649;42.968;1.608;2023-07-09T01:23:03;9.10;;;5.80;;
70253;SDS011;57649;42.968;1.608;2023-07-09T01:25:31;11.43;;;5.68;;
70253;SDS011;57649;42.968;1.608;2023-07-09T01:27:57;8.30;;;5.43;;
70253;SDS011;57649;42.968;1.608;2023-07-09T01:30:30;11.88;;;6.07;;
70253;SDS011;57649;42.968;1.608;2023-07-09T01:32:58;10.77;;;5.65;;
70253;SDS011;57649;42.968;1.608;2023-07-09T01:35:26;8.88;;;5.80;;
70253;SDS011;57649;42.968;1.608;2023-07-09T01:37:53;9.75;;;4.88;;
70253;SDS011;57649;42.968;1.608;2023-07-09T01:40:19;8.02;;;5.50;;
70253;SDS011;57649;42.968;1.608;2023-07-09T01:42:47;6.95;;;5.32;;
70253;SDS011;57649;42.968;1.608;2023-07-09T01:45:13;9.07;;;5.28;;
70253;SDS011;57649;42.968;1.608;2023-07-09T01:47:39;9.13;;;5.53;;
70253;SDS011;57649;42.968;1.608;2023-07-09T01:50:05;6.70;;;5.18;;
70253;SDS011;57649;42.968;1.608;2023-07-09T01:52:31;8.68;;;5.82;;
70253;SDS011;57649;42.968;1.608;2023-07-09T01:54:58;11.65;;;5.18;;
70253;SDS011;57649;42.968;1.608;2023-07-09T01:57:25;10.80;;;5.20;;
70253;SDS011;57649;42.968;1.608;2023-07-09T01:59:58;6.85;;;5.57;;
70253;SDS011;57649;42.968;1.608;2023-07-09T02:02:25;10.02;;;5.80;;
70253;SDS011;57649;42.968;1.608;2023-07-09T02:04:52;10.68;;;5.75;;
70253;SDS011;57649;42.968;1.608;2023-07-09T02:07:19;8.32;;;5.35;;
70253;SDS011;57649;42.968;1.608;2023-07-09T02:09:46;7.80;;;5.13;;
70253;SDS011;57649;42.968;1.608;2023-07-09T02:12:12;8.15;;;5.15;;
70253;SDS011;57649;42.968;1.608;2023-07-09T02:14:39;7.80;;;5.60;;
70253;SDS011;57649;42.968;1.608;2023-07-09T02:17:05;9.00;;;6.10;;
70253;SDS011;57649;42.968;1.608;2023-07-09T02:19:31;7.55;;;5.55;;
70253;SDS011;57649;42.968;1.608;2023-07-09T02:21:57;6.72;;;5.03;;
70253;SDS011;57649;42.968;1.608;2023-07-09T02:24:22;7.05;;;5.00;;
70253;SDS011;57649;42.968;1.608;2023-07-09T02:26:52;7.82;;;5.32;;
70253;SDS011;57649;42.968;1.608;2023-07-09T02:29:22;7.75;;;5.15;;
70253;SDS011;57649;42.968;1.608;2023-07-09T02:31:49;10.02;;;5.60;;
70253;SDS011;57649;42.968;1.608;2023-07-09T02:34:16;9.23;;;5.18;;
70253;SDS011;57649;42.968;1.608;2023-07-09T02:36:43;8.93;;;5.22;;
70253;SDS011;57649;42.968;1.608;2023-07-09T02:39:09;9.27;;;5.15;;
70253;SDS011;57649;42.968;1.608;2023-07-09T02:41:36;9.05;;;5.70;;
70253;SDS011;57649;42.968;1.608;2023-07-09T02:44:02;6.97;;;5.07;;
70253;SDS011;57649;42.968;1.608;2023-07-09T02:46:28;9.00;;;5.75;;
70253;SDS011;57649;42.968;1.608;2023-07-09T02:48:54;10.23;;;5.68;;
70253;SDS011;57649;42.968;1.608;2023-07-09T02:51:20;10.27;;;5.82;;
70253;SDS011;57649;42.968;1.608;2023-07-09T02:53:45;10.88;;;5.35;;
70253;SDS011;57649;42.968;1.608;2023-07-09T02:56:10;10.05;;;5.32;;
70253;SDS011;57649;42.968;1.608;2023-07-09T02:58:36;7.03;;;5.28;;
70253;SDS011;57649;42.968;1.608;2023-07-09T03:01:01;8.15;;;5.18;;
70253;SDS011;57649;42.968;1.608;2023-07-09T03:03:28;7.88;;;5.03;;
70253;SDS011;57649;42.968;1.608;2023-07-09T03:05:53;10.52;;;5.28;;
70253;SDS011;57649;42.968;1.608;2023-07-09T03:08:19;8.20;;;4.93;;
70253;SDS011;57649;42.968;1.608;2023-07-09T03:10:44;9.75;;;4.88;;
70253;SDS011;57649;42.968;1.608;2023-07-09T03:13:10;11.05;;;4.95;;
70253;SDS011;57649;42.968;1.608;2023-07-09T03:15:35;9.45;;;4.50;;
70253;SDS011;57649;42.968;1.608;2023-07-09T03:18:00;9.35;;;5.18;;
70253;SDS011;57649;42.968;1.608;2023-07-09T03:20:26;11.57;;;5.22;;
70253;SDS011;57649;42.968;1.608;2023-07-09T03:22:51;7.50;;;4.80;;
70253;SDS011;57649;42.968;1.608;2023-07-09T03:25:17;10.30;;;5.22;;
70253;SDS011;57649;42.968;1.608;2023-07-09T03:27:42;6.82;;;4.68;;
70253;SDS011;57649;42.968;1.608;2023-07-09T03:30:08;9.52;;;4.72;;
70253;SDS011;57649;42.968;1.608;2023-07-09T03:32:34;7.75;;;5.00;;
70253;SDS011;57649;42.968;1.608;2023-07-09T03:34:59;5.90;;;4.53;;
70253;SDS011;57649;42.968;1.608;2023-07-09T03:37:24;8.52;;;4.78;;
70253;SDS011;57649;42.968;1.608;2023-07-09T03:39:51;11.05;;;5.18;;
70253;SDS011;57649;42.968;1.608;2023-07-09T03:42:16;8.77;;;4.95;;
70253;SDS011;57649;42.968;1.608;2023-07-09T03:44:42;8.75;;;5.05;;
70253;SDS011;57649;42.968;1.608;2023-07-09T03:47:07;8.27;;;4.88;;
70253;SDS011;57649;42.968;1.608;2023-07-09T03:49:33;7.50;;;4.47;;
70253;SDS011;57649;42.968;1.608;2023-07-09T03:51:58;6.15;;;4.35;;
70253;SDS011;57649;42.968;1.608;2023-07-09T03:54:24;9.82;;;5.05;;
70253;SDS011;57649;42.968;1.608;2023-07-09T03:56:49;7.72;;;4.65;;
70253;SDS011;57649;42.968;1.608;2023-07-09T03:59:14;7.63;;;5.20;;
70253;SDS011;57649;42.968;1.608;2023-07-09T04:01:40;8.07;;;4.65;;
70253;SDS011;57649;42.968;1.608;2023-07-09T04:04:11;10.77;;;5.50;;
70253;SDS011;57649;42.968;1.608;2023-07-09T04:06:37;9.43;;;5.38;;
70253;SDS011;57649;42.968;1.608;2023-07-09T04:09:02;8.07;;;4.78;;
70253;SDS011;57649;42.968;1.608;2023-07-09T04:11:28;7.22;;;4.97;;
70253;SDS011;57649;42.968;1.608;2023-07-09T04:13:53;8.88;;;5.30;;
70253;SDS011;57649;42.968;1.608;2023-07-09T04:16:18;9.32;;;5.20;;
70253;SDS011;57649;42.968;1.608;2023-07-09T04:18:44;7.20;;;5.50;;
70253;SDS011;57649;42.968;1.608;2023-07-09T04:21:09;7.38;;;4.50;;
70253;SDS011;57649;42.968;1.608;2023-07-09T04:23:34;9.18;;;5.93;;
70253;SDS011;57649;42.968;1.608;2023-07-09T04:26:00;10.00;;;5.63;;
70253;SDS011;57649;42.968;1.608;2023-07-09T04:28:27;8.43;;;5.80;;
70253;SDS011;57649;42.968;1.608;2023-07-09T04:30:55;8.93;;;5.80;;
70253;SDS011;57649;42.968;1.608;2023-07-09T04:33:20;9.80;;;5.88;;
70253;SDS011;57649;42.968;1.608;2023-07-09T04:35:45;8.52;;;6.03;;
70253;SDS011;57649;42.968;1.608;2023-07-09T04:38:12;10.32;;;6.07;;
70253;SDS011;57649;42.968;1.608;2023-07-09T04:40:38;12.20;;;6.72;;
70253;SDS011;57649;42.968;1.608;2023-07-09T04:43:03;9.27;;;5.80;;
70253;SDS011;57649;42.968;1.608;2023-07-09T04:45:29;6.60;;;5.25;;
70253;SDS011;57649;42.968;1.608;2023-07-09T04:47:54;9.52;;;5.38;;
70253;SDS011;57649;42.968;1.608;2023-07-09T04:50:19;8.00;;;5.50;;
70253;SDS011;57649;42.968;1.608;2023-07-09T04:52:45;9.63;;;5.47;;
70253;SDS011;57649;42.968;1.608;2023-07-09T04:55:10;9.93;;;5.63;;
70253;SDS011;57649;42.968;1.608;2023-07-09T04:57:36;8.57;;;5.43;;
70253;SDS011;57649;42.968;1.608;2023-07-09T05:00:02;11.07;;;5.50;;
70253;SDS011;57649;42.968;1.608;2023-07-09T05:02:29;8.15;;;5.85;;
70253;SDS011;57649;42.968;1.608;2023-07-09T05:04:55;7.80;;;5.45;;
70253;SDS011;57649;42.968;1.608;2023-07-09T05:07:20;7.75;;;5.43;;
70253;SDS011;57649;42.968;1.608;2023-07-09T05:09:46;9.93;;;5.53;;
70253;SDS011;57649;42.968;1.608;2023-07-09T05:12:12;9.30;;;5.43;;
70253;SDS011;57649;42.968;1.608;2023-07-09T05:14:37;8.63;;;5.25;;
70253;SDS011;57649;42.968;1.608;2023-07-09T05:17:03;8.20;;;5.32;;
70253;SDS011;57649;42.968;1.608;2023-07-09T05:19:29;9.73;;;5.75;;
70253;SDS011;57649;42.968;1.608;2023-07-09T05:21:55;13.90;;;5.32;;
70253;SDS011;57649;42.968;1.608;2023-07-09T05:24:20;9.82;;;5.18;;
70253;SDS011;57649;42.968;1.608;2023-07-09T05:26:46;9.57;;;5.60;;
70253;SDS011;57649;42.968;1.608;2023-07-09T05:29:11;7.43;;;5.68;;
70253;SDS011;57649;42.968;1.608;2023-07-09T05:31:36;6.13;;;5.22;;
70253;SDS011;57649;42.968;1.608;2023-07-09T05:34:02;8.18;;;5.15;;
70253;SDS011;57649;42.968;1.608;2023-07-09T05:36:27;7.38;;;4.97;;
70253;SDS011;57649;42.968;1.608;2023-07-09T05:38:54;8.20;;;5.10;;
70253;SDS011;57649;42.968;1.608;2023-07-09T05:41:20;7.68;;;4.60;;
70253;SDS011;57649;42.968;1.608;2023-07-09T05:43:45;8.00;;;4.95;;
70253;SDS011;57649;42.968;1.608;2023-07-09T05:46:11;9.75;;;5.20;;
70253;SDS011;57649;42.968;1.608;2023-07-09T05:48:38;8.80;;;4.75;;
70253;SDS011;57649;42.968;1.608;2023-07-09T05:51:04;8.18;;;5.53;;
70253;SDS011;57649;42.968;1.608;2023-07-09T05:53:30;8.07;;;5.28;;
70253;SDS011;57649;42.968;1.608;2023-07-09T05:55:57;8.25;;;5.53;;
70253;SDS011;57649;42.968;1.608;2023-07-09T05:58:22;7.25;;;5.50;;
70253;SDS011;57649;42.968;1.608;2023-07-09T06:00:51;9.63;;;5.03;;
70253;SDS011;57649;42.968;1.608;2023-07-09T06:03:23;9.68;;;5.38;;
70253;SDS011;57649;42.968;1.608;2023-07-09T06:05:51;9.93;;;4.97;;
70253;SDS011;57649;42.968;1.608;2023-07-09T06:08:17;8.73;;;5.45;;
70253;SDS011;57649;42.968;1.608;2023-07-09T06:10:50;10.85;;;5.22;;
70253;SDS011;57649;42.968;1.608;2023-07-09T06:13:23;10.50;;;4.88;;
70253;SDS011;57649;42.968;1.608;2023-07-09T06:15:49;9.90;;;5.10;;
70253;SDS011;57649;42.968;1.608;2023-07-09T06:18:15;9.85;;;5.90;;
70253;SDS011;57649;42.968;1.608;2023-07-09T06:20:41;11.48;;;5.32;;
70253;SDS011;57649;42.968;1.608;2023-07-09T06:23:10;9.85;;;5.13;;
70253;SDS011;57649;42.968;1.608;2023-07-09T06:25:37;8.82;;;5.30;;
70253;SDS011;57649;42.968;1.608;2023-07-09T06:28:03;6.97;;;5.32;;
70253;SDS011;57649;42.968;1.608;2023-07-09T06:30:29;11.65;;;5.03;;
70253;SDS011;57649;42.968;1.608;2023-07-09T06:32:54;8.18;;;5.25;;
70253;SDS011;57649;42.968;1.608;2023-07-09T06:35:19;9.00;;;5.38;;
70253;SDS011;57649;42.968;1.608;2023-07-09T06:37:45;7.20;;;5.45;;
70253;SDS011;57649;42.968;1.608;2023-07-09T06:40:10;9.38;;;5.72;;
70253;SDS011;57649;42.968;1.608;2023-07-09T06:42:37;8.90;;;5.47;;
70253;SDS011;57649;42.968;1.608;2023-07-09T06:45:03;7.47;;;5.00;;
70253;SDS011;57649;42.968;1.608;2023-07-09T06:47:29;6.60;;;5.85;;
70253;SDS011;57649;42.968;1.608;2023-07-09T06:49:55;8.85;;;5.15;;
70253;SDS011;57649;42.968;1.608;2023-07-09T06:52:20;8.02;;;5.63;;
70253;SDS011;57649;42.968;1.608;2023-07-09T06:54:46;7.78;;;5.35;;
70253;SDS011;57649;42.968;1.608;2023-07-09T06:57:11;8.18;;;5.65;;
70253;SDS011;57649;42.968;1.608;2023-07-09T06:59:36;11.73;;;6.30;;
70253;SDS011;57649;42.968;1.608;2023-07-09T07:02:03;12.73;;;6.25;;
70253;SDS011;57649;42.968;1.608;2023-07-09T07:04:28;10.07;;;6.40;;
70253;SDS011;57649;42.968;1.608;2023-07-09T07:06:54;13.52;;;6.82;;
70253;SDS011;57649;42.968;1.608;2023-07-09T07:09:21;9.40;;;6.97;;
70253;SDS011;57649;42.968;1.608;2023-07-09T07:11:47;9.90;;;6.18;;
70253;SDS011;57649;42.968;1.608;2023-07-09T07:14:13;7.47;;;5.90;;
70253;SDS011;57649;42.968;1.608;2023-07-09T07:16:38;9.18;;;6.45;;
70253;SDS011;57649;42.968;1.608;2023-07-09T07:19:04;8.38;;;6.10;;
70253;SDS011;57649;42.968;1.608;2023-07-09T07:21:30;9.32;;;6.25;;
70253;SDS011;57649;42.968;1.608;2023-07-09T07:23:56;10.70;;;6.90;;
70253;SDS011;57649;42.968;1.608;2023-07-09T07:26:21;12.43;;;7.97;;
70253;SDS011;57649;42.968;1.608;2023-07-09T07:28:47;8.02;;;7.00;;
70253;SDS011;57649;42.968;1.608;2023-07-09T07:31:13;10.88;;;7.70;;
70253;SDS011;57649;42.968;1.608;2023-07-09T07:33:39;7.88;;;6.57;;
70253;SDS011;57649;42.968;1.608;2023-07-09T07:36:06;12.30;;;7.70;;
70253;SDS011;57649;42.968;1.608;2023-07-09T07:38:32;12.85;;;7.35;;
70253;SDS011;57649;42.968;1.608;2023-07-09T07:40:57;12.60;;;7.93;;
70253;SDS011;57649;42.968;1.608;2023-07-09T07:43:23;10.25;;;7.28;;
70253;SDS011;57649;42.968;1.608;2023-07-09T07:45:48;11.15;;;7.75;;
70253;SDS011;57649;42.968;1.608;2023-07-09T07:48:14;8.20;;;7.13;;
70253;SDS011;57649;42.968;1.608;2023-07-09T07:50:39;10.23;;;6.90;;
70253;SDS011;57649;42.968;1.608;2023-07-09T07:53:06;10.52;;;7.70;;
70253;SDS011;57649;42.968;1.608;2023-07-09T07:55:33;10.27;;;7.80;;
70253;SDS011;57649;42.968;1.608;2023-07-09T07:57:59;9.57;;;7.45;;
70253;SDS011;57649;42.968;1.608;2023-07-09T08:00:27;11.03;;;7.07;;
70253;SDS011;57649;42.968;1.608;2023-07-09T08:02:53;10.73;;;7.43;;
70253;SDS011;57649;42.968;1.608;2023-07-09T08:05:19;10.18;;;7.65;;
70253;SDS011;57649;42.968;1.608;2023-07-09T08:07:44;10.65;;;7.43;;
70253;SDS011;57649;42.968;1.608;2023-07-09T08:10:10;11.73;;;7.32;;
70253;SDS011;57649;42.968;1.608;2023-07-09T08:12:36;9.98;;;7.03;;
70253;SDS011;57649;42.968;1.608;2023-07-09T08:15:02;11.10;;;6.97;;
70253;SDS011;57649;42.968;1.608;2023-07-09T08:17:28;10.75;;;7.35;;
70253;SDS011;57649;42.968;1.608;2023-07-09T08:19:54;13.40;;;7.07;;
70253;SDS011;57649;42.968;1.608;2023-07-09T08:22:20;11.65;;;7.50;;
70253;SDS011;57649;42.968;1.608;2023-07-09T08:24:47;11.40;;;7.72;;
70253;SDS011;57649;42.968;1.608;2023-07-09T08:27:16;10.30;;;7.10;;
70253;SDS011;57649;42.968;1.608;2023-07-09T08:29:42;11.77;;;7.65;;
70253;SDS011;57649;42.968;1.608;2023-07-09T08:32:08;10.45;;;7.70;;
70253;SDS011;57649;42.968;1.608;2023-07-09T08:34:34;14.52;;;8.20;;
70253;SDS011;57649;42.968;1.608;2023-07-09T08:37:00;9.85;;;7.60;;
70253;SDS011;57649;42.968;1.608;2023-07-09T08:39:26;15.52;;;8.80;;
70253;SDS011;57649;42.968;1.608;2023-07-09T08:50:21;8.90;;;6.97;;
70253;SDS011;57649;42.968;1.608;2023-07-09T08:52:50;8.38;;;7.05;;
70253;SDS011;57649;42.968;1.608;2023-07-09T08:55:21;12.18;;;7.07;;
70253;SDS011;57649;42.968;1.608;2023-07-09T08:57:54;9.13;;;6.65;;
70253;SDS011;57649;42.968;1.608;2023-07-09T09:01:12;8.65;;;6.60;;
70253;SDS011;57649;42.968;1.608;2023-07-09T09:03:30;11.07;;;7.82;;
70253;SDS011;57649;42.968;1.608;2023-07-09T09:05:57;12.07;;;8.55;;
70253;SDS011;57649;42.968;1.608;2023-07-09T09:13:55;15.07;;;10.85;;
70253;SDS011;57649;42.968;1.608;2023-07-09T09:16:30;17.15;;;13.20;;
70253;SDS011;57649;42.968;1.608;2023-07-09T09:18:58;19.73;;;12.23;;
70253;SDS011;57649;42.968;1.608;2023-07-09T09:21:35;17.58;;;12.80;;
70253;SDS011;57649;42.968;1.608;2023-07-09T09:24:15;14.00;;;11.45;;
70253;SDS011;57649;42.968;1.608;2023-07-09T09:26:44;15.65;;;11.43;;
70253;SDS011;57649;42.968;1.608;2023-07-09T09:29:11;19.65;;;11.93;;
70253;SDS011;57649;42.968;1.608;2023-07-09T09:31:37;20.55;;;12.77;;
70253;SDS011;57649;42.968;1.608;2023-07-09T09:34:03;16.50;;;12.32;;
70253;SDS011;57649;42.968;1.608;2023-07-09T09:36:30;15.27;;;12.43;;
70253;SDS011;57649;42.968;1.608;2023-07-09T09:39:01;16.38;;;13.13;;
70253;SDS011;57649;42.968;1.608;2023-07-09T09:41:30;15.98;;;12.80;;
70253;SDS011;57649;42.968;1.608;2023-07-09T09:43:58;18.35;;;12.60;;
70253;SDS011;57649;42.968;1.608;2023-07-09T09:46:25;17.45;;;12.43;;
70253;SDS011;57649;42.968;1.608;2023-07-09T09:48:55;16.35;;;12.02;;
70253;SDS011;57649;42.968;1.608;2023-07-09T09:51:24;19.85;;;13.15;;
70253;SDS011;57649;42.968;1.608;2023-07-09T09:53:55;18.70;;;12.25;;
70253;SDS011;57649;42.968;1.608;2023-07-09T09:56:28;19.83;;;13.48;;
70253;SDS011;57649;42.968;1.608;2023-07-09T09:58:56;17.05;;;12.48;;
70253;SDS011;57649;42.968;1.608;2023-07-09T10:01:33;15.77;;;12.75;;
70253;SDS011;57649;42.968;1.608;2023-07-09T10:04:00;19.85;;;12.55;;
70253;SDS011;57649;42.968;1.608;2023-07-09T10:09:16;15.38;;;12.27;;
70253;SDS011;57649;42.968;1.608;2023-07-09T10:11:58;18.25;;;12.85;;
70253;SDS011;57649;42.968;1.608;2023-07-09T10:14:49;18.05;;;12.90;;
70253;SDS011;57649;42.968;1.608;2023-07-09T10:19:59;18.88;;;12.65;;
70253;SDS011;57649;42.968;1.608;2023-07-09T10:23:01;13.23;;;11.48;;
70253;SDS011;57649;42.968;1.608;2023-07-09T10:26:04;17.83;;;12.13;;
70253;SDS011;57649;42.968;1.608;2023-07-09T10:31:46;15.90;;;11.82;;
70253;SDS011;57649;42.968;1.608;2023-07-09T10:34:17;15.15;;;11.70;;
70253;SDS011;57649;42.968;1.608;2023-07-09T10:39:25;16.95;;;12.57;;
70253;SDS011;57649;42.968;1.608;2023-07-09T10:41:57;17.27;;;12.38;;
70253;SDS011;57649;42.968;1.608;2023-07-09T10:44:32;15.45;;;12.27;;
70253;SDS011;57649;42.968;1.608;2023-07-09T10:47:05;16.17;;;11.73;;
70253;SDS011;57649;42.968;1.608;2023-07-09T10:49:36;15.32;;;12.15;;
70253;SDS011;57649;42.968;1.608;2023-07-09T10:54:42;15.18;;;12.02;;
70253;SDS011;57649;42.968;1.608;2023-07-09T10:57:25;16.33;;;12.63;;
70253;SDS011;57649;42.968;1.608;2023-07-09T10:59:55;18.35;;;12.38;;
70253;SDS011;57649;42.968;1.608;2023-07-09T11:02:28;15.55;;;11.73;;
70253;SDS011;57649;42.968;1.608;2023-07-09T11:05:02;17.45;;;12.00;;
70253;SDS011;57649;42.968;1.608;2023-07-09T11:09:58;15.82;;;12.20;;
70253;SDS011;57649;42.968;1.608;2023-07-09T11:12:29;15.43;;;11.80;;
70253;SDS011;57649;42.968;1.608;2023-07-09T11:15:02;17.00;;;11.93;;
70253;SDS011;57649;42.968;1.608;2023-07-09T11:17:33;19.38;;;12.80;;
70253;SDS011;57649;42.968;1.608;2023-07-09T11:22:38;17.95;;;12.32;;
70253;SDS011;57649;42.968;1.608;2023-07-09T11:25:12;16.98;;;11.70;;
70253;SDS011;57649;42.968;1.608;2023-07-09T11:27:46;18.73;;;12.52;;
70253;SDS011;57649;42.968;1.608;2023-07-09T11:30:33;16.67;;;11.52;;
70253;SDS011;57649;42.968;1.608;2023-07-09T11:33:20;15.93;;;12.00;;
70253;SDS011;57649;42.968;1.608;2023-07-09T11:35:53;16.15;;;11.25;;
70253;SDS011;57649;42.968;1.608;2023-07-09T11:38:36;13.75;;;11.07;;
70253;SDS011;57649;42.968;1.608;2023-07-09T11:41:22;14.18;;;11.40;;
70253;SDS011;57649;42.968;1.608;2023-07-09T11:44:11;15.68;;;11.82;;
70253;SDS011;57649;42.968;1.608;2023-07-09T11:46:45;14.43;;;11.23;;
70253;SDS011;57649;42.968;1.608;2023-07-09T11:49:14;13.85;;;10.73;;
70253;SDS011;57649;42.968;1.608;2023-07-09T11:51:47;15.40;;;10.57;;
70253;SDS011;57649;42.968;1.608;2023-07-09T11:54:18;13.30;;;10.98;;
70253;SDS011;57649;42.968;1.608;2023-07-09T11:56:52;13.65;;;10.93;;
70253;SDS011;57649;42.968;1.608;2023-07-09T11:59:19;15.93;;;10.77;;
70253;SDS011;57649;42.968;1.608;2023-07-09T12:01:45;18.02;;;11.60;;
70253;SDS011;57649;42.968;1.608;2023-07-09T12:04:14;13.63;;;11.13;;
70253;SDS011;57649;42.968;1.608;2023-07-09T12:06:42;17.65;;;11.80;;
70253;SDS011;57649;42.968;1.608;2023-07-09T12:09:13;14.98;;;10.57;;
70253;SDS011;57649;42.968;1.608;2023-07-09T12:11:46;15.00;;;10.02;;
70253;SDS011;57649;42.968;1.608;2023-07-09T12:14:14;11.52;;;10.25;;
70253;SDS011;57649;42.968;1.608;2023-07-09T12:16:46;14.63;;;11.18;;
70253;SDS011;57649;42.968;1.608;2023-07-09T12:19:14;13.65;;;10.82;;
70253;SDS011;57649;42.968;1.608;2023-07-09T12:21:44;13.70;;;10.65;;
70253;SDS011;57649;42.968;1.608;2023-07-09T12:24:22;12.25;;;10.70;;
70253;SDS011;57649;42.968;1.608;2023-07-09T12:26:58;14.27;;;11.05;;
70253;SDS011;57649;42.968;1.608;2023-07-09T12:29:28;12.25;;;10.52;;
70253;SDS011;57649;42.968;1.608;2023-07-09T12:32:03;11.40;;;10.02;;
70253;SDS011;57649;42.968;1.608;2023-07-09T12:34:35;16.50;;;10.45;;
70253;SDS011;57649;42.968;1.608;2023-07-09T12:37:00;12.35;;;10.90;;
70253;SDS011;57649;42.968;1.608;2023-07-09T12:39:26;13.55;;;10.63;;
70253;SDS011;57649;42.968;1.608;2023-07-09T12:41:59;13.90;;;11.15;;
70253;SDS011;57649;42.968;1.608;2023-07-09T12:44:26;14.32;;;10.65;;
70253;SDS011;57649;42.968;1.608;2023-07-09T12:46:56;13.38;;;10.02;;
70253;SDS011;57649;42.968;1.608;2023-07-09T12:49:29;13.55;;;10.55;;
70253;SDS011;57649;42.968;1.608;2023-07-09T12:52:02;14.43;;;9.93;;
70253;SDS011;57649;42.968;1.608;2023-07-09T12:54:29;13.40;;;10.10;;
70253;SDS011;57649;42.968;1.608;2023-07-09T12:56:55;13.40;;;10.27;;
70253;SDS011;57649;42.968;1.608;2023-07-09T12:59:24;17.45;;;10.77;;
70253;SDS011;57649;42.968;1.608;2023-07-09T13:02:14;12.70;;;9.77;;
70253;SDS011;57649;42.968;1.608;2023-07-09T13:04:42;21.30;;;10.50;;
70253;SDS011;57649;42.968;1.608;2023-07-09T13:12:32;13.50;;;10.13;;
70253;SDS011;57649;42.968;1.608;2023-07-09T13:14:58;21.17;;;10.25;;
70253;SDS011;57649;42.968;1.608;2023-07-09T13:17:27;15.88;;;10.10;;
70253;SDS011;57649;42.968;1.608;2023-07-09T13:19:54;12.18;;;9.50;;
70253;SDS011;57649;42.968;1.608;2023-07-09T13:22:21;12.63;;;9.75;;
70253;SDS011;57649;42.968;1.608;2023-07-09T13:24:47;14.07;;;10.02;;
70253;SDS011;57649;42.968;1.608;2023-07-09T13:27:13;15.15;;;9.70;;
70253;SDS011;57649;42.968;1.608;2023-07-09T13:29:40;13.98;;;9.75;;
70253;SDS011;57649;42.968;1.608;2023-07-09T13:32:10;12.07;;;9.50;;
70253;SDS011;57649;42.968;1.608;2023-07-09T13:34:37;10.73;;;8.88;;
70253;SDS011;57649;42.968;1.608;2023-07-09T13:37:04;13.05;;;9.00;;
70253;SDS011;57649;42.968;1.608;2023-07-09T13:39:30;11.23;;;9.05;;
70253;SDS011;57649;42.968;1.608;2023-07-09T13:41:56;10.73;;;9.05;;
70253;SDS011;57649;42.968;1.608;2023-07-09T13:44:23;11.63;;;9.07;;
70253;SDS011;57649;42.968;1.608;2023-07-09T13:46:50;11.13;;;8.90;;
70253;SDS011;57649;42.968;1.608;2023-07-09T13:49:18;14.52;;;9.65;;
70253;SDS011;57649;42.968;1.608;2023-07-09T13:51:46;15.53;;;9.90;;
70253;SDS011;57649;42.968;1.608;2023-07-09T13:54:14;12.52;;;9.60;;
70253;SDS011;57649;42.968;1.608;2023-07-09T13:56:42;9.65;;;8.57;;
70253;SDS011;57649;42.968;1.608;2023-07-09T13:59:15;11.27;;;8.90;;
70253;SDS011;57649;42.968;1.608;2023-07-09T14:01:45;11.90;;;8.82;;
70253;SDS011;57649;42.968;1.608;2023-07-09T14:04:12;11.52;;;9.48;;
70253;SDS011;57649;42.968;1.608;2023-07-09T14:06:39;11.27;;;8.82;;
70253;SDS011;57649;42.968;1.608;2023-07-09T14:09:05;12.05;;;8.13;;
70253;SDS011;57649;42.968;1.608;2023-07-09T14:11:33;12.95;;;8.48;;
70253;SDS011;57649;42.968;1.608;2023-07-09T14:13:59;11.45;;;8.07;;
70253;SDS011;57649;42.968;1.608;2023-07-09T14:16:25;11.50;;;8.85;;
70253;SDS011;57649;42.968;1.608;2023-07-09T14:18:50;10.27;;;8.65;;
70253;SDS011;57649;42.968;1.608;2023-07-09T14:21:23;12.88;;;8.57;;
70253;SDS011;57649;42.968;1.608;2023-07-09T14:23:51;13.05;;;9.05;;
70253;SDS011;57649;42.968;1.608;2023-07-09T14:26:17;11.73;;;8.77;;
70253;SDS011;57649;42.968;1.608;2023-07-09T14:28:42;11.95;;;8.95;;
70253;SDS011;57649;42.968;1.608;2023-07-09T14:31:23;10.20;;;8.70;;
70253;SDS011;57649;42.968;1.608;2023-07-09T14:33:52;13.05;;;8.88;;
70253;SDS011;57649;42.968;1.608;2023-07-09T14:36:17;13.07;;;8.68;;
70253;SDS011;57649;42.968;1.608;2023-07-09T14:38:43;13.65;;;8.98;;
70253;SDS011;57649;42.968;1.608;2023-07-09T14:41:18;13.35;;;8.50;;
70253;SDS011;57649;42.968;1.608;2023-07-09T14:43:49;12.48;;;8.48;;
70253;SDS011;57649;42.968;1.608;2023-07-09T14:46:15;11.32;;;8.90;;
70253;SDS011;57649;42.968;1.608;2023-07-09T14:48:40;16.65;;;9.35;;
70253;SDS011;57649;42.968;1.608;2023-07-09T14:51:15;11.82;;;8.38;;
70253;SDS011;57649;42.968;1.608;2023-07-09T14:53:41;11.18;;;8.45;;
70253;SDS011;57649;42.968;1.608;2023-07-09T14:56:07;10.52;;;8.02;;
70253;SDS011;57649;42.968;1.608;2023-07-09T14:58:34;12.50;;;8.63;;
70253;SDS011;57649;42.968;1.608;2023-07-09T15:01:00;13.18;;;8.23;;
70253;SDS011;57649;42.968;1.608;2023-07-09T15:03:25;10.80;;;8.45;;
70253;SDS011;57649;42.968;1.608;2023-07-09T15:05:51;11.35;;;7.90;;
70253;SDS011;57649;42.968;1.608;2023-07-09T15:08:20;12.55;;;8.80;;
70253;SDS011;57649;42.968;1.608;2023-07-09T15:10:48;10.25;;;8.27;;
70253;SDS011;57649;42.968;1.608;2023-07-09T15:16:00;9.30;;;8.05;;
70253;SDS011;57649;42.968;1.608;2023-07-09T15:18:26;10.20;;;8.07;;
70253;SDS011;57649;42.968;1.608;2023-07-09T15:20:53;10.25;;;8.45;;
70253;SDS011;57649;42.968;1.608;2023-07-09T15:23:21;11.70;;;7.90;;
70253;SDS011;57649;42.968;1.608;2023-07-09T15:25:47;12.40;;;8.18;;